Time;durP1;ratioP1;P1;durP2;ratioP2;P2;SDS_P1;SDS_P2;PMS_P1;PMS_P2;Temp;Humidity;BMP_temperature;BMP_pressure;BME280_temperature;BME280_humidity;BME280_pressure;Samples;Min_cycle;Max_cycle;Signal;HPM_P1;HPM_P2
2022/08/18 00:02:09;;;;;;;4.32;1.25;;;;;;;;;;5044201;28;20068;-62
2022/08/18 00:04:37;;;;;;;7.22;1.40;;;;;;;;;;5043417;28;20033;-60
2022/08/18 00:07:07;;;;;;;2.65;0.98;;;;;;;;;;5042217;28;20048;-59
2022/08/18 00:09:35;;;;;;;4.35;1.05;;;;;;;;;;5041437;28;20076;-62
2022/08/18 00:12:04;;;;;;;5.45;1.38;;;;;;;;;;5056443;28;20053;-61
2022/08/18 00:14:31;;;;;;;4.28;1.17;;;;;;;;;;5044720;28;20078;-61
2022/08/18 00:16:57;;;;;;;4.22;1.58;;;;;;;;;;5042215;28;20060;-59
2022/08/18 00:19:24;;;;;;;4.85;1.50;;;;;;;;;;5041661;28;20665;-60
2022/08/18 00:21:51;;;;;;;3.47;1.30;;;;;;;;;;5044472;28;20033;-60
2022/08/18 00:24:18;;;;;;;3.33;1.02;;;;;;;;;;5043892;28;20032;-60
2022/08/18 00:26:44;;;;;;;3.10;1.00;;;;;;;;;;5043008;28;20091;-61
2022/08/18 00:29:11;;;;;;;3.90;1.10;;;;;;;;;;5041948;28;20036;-61
2022/08/18 00:31:38;;;;;;;3.88;1.00;;;;;;;;;;5041917;28;20068;-60
2022/08/18 00:34:06;;;;;;;4.38;1.02;;;;;;;;;;5044879;28;21339;-60
2022/08/18 00:36:33;;;;;;;3.90;1.27;;;;;;;;;;5044145;28;20163;-60
2022/08/18 00:39:00;;;;;;;3.83;1.10;;;;;;;;;;5045456;28;20052;-61
2022/08/18 00:41:27;;;;;;;3.70;0.93;;;;;;;;;;5043015;28;20141;-61
2022/08/18 00:43:57;;;;;;;5.50;1.20;;;;;;;;;;5045546;28;20037;-60
2022/08/18 00:46:28;;;;;;;4.22;1.17;;;;;;;;;;5045106;28;20080;-60
2022/08/18 00:48:55;;;;;;;11.05;1.42;;;;;;;;;;5036185;28;20050;-61
2022/08/18 00:51:24;;;;;;;3.40;1.20;;;;;;;;;;5043458;28;20052;-60
2022/08/18 00:54:15;;;;;;;3.60;1.20;;;;;;;;;;5047589;28;20129;-61
2022/08/18 00:56:43;;;;;;;5.75;1.17;;;;;;;;;;5015886;28;20045;-61
2022/08/18 00:59:10;;;;;;;5.82;1.10;;;;;;;;;;5021186;28;20513;-60
2022/08/18 01:01:37;;;;;;;4.13;1.05;;;;;;;;;;5018495;28;20375;-60
2022/08/18 01:04:14;;;;;;;4.18;1.23;;;;;;;;;;5018878;28;20037;-60
2022/08/18 01:06:50;;;;;;;3.08;0.93;;;;;;;;;;5017061;28;20176;-60
2022/08/18 01:09:18;;;;;;;5.90;1.30;;;;;;;;;;5018911;28;20239;-60
2022/08/18 01:11:45;;;;;;;3.83;1.45;;;;;;;;;;5017529;28;20041;-60
2022/08/18 01:14:14;;;;;;;8.55;1.25;;;;;;;;;;5017262;28;20179;-60
2022/08/18 01:22:19;;;;;;;3.75;1.00;;;;;;;;;;5018178;28;20189;-60
2022/08/18 01:27:31;;;;;;;4.53;1.27;;;;;;;;;;5017486;28;20040;-60
2022/08/18 01:30:02;;;;;;;3.30;1.10;;;;;;;;;;5017091;28;20041;-59
2022/08/18 01:32:28;;;;;;;5.43;1.00;;;;;;;;;;5015318;28;20048;-59
2022/08/18 01:34:55;;;;;;;3.55;1.10;;;;;;;;;;5017642;28;20098;-60
2022/08/18 01:37:23;;;;;;;3.75;1.02;;;;;;;;;;5017816;28;20052;-60
2022/08/18 01:39:50;;;;;;;3.38;1.10;;;;;;;;;;5017736;28;20044;-60
2022/08/18 01:42:17;;;;;;;2.92;0.90;;;;;;;;;;5019690;28;20072;-60
2022/08/18 01:44:46;;;;;;;3.47;1.10;;;;;;;;;;5021755;28;20149;-60
2022/08/18 01:47:13;;;;;;;3.05;1.00;;;;;;;;;;5019015;28;20045;-60
2022/08/18 01:49:41;;;;;;;7.47;1.17;;;;;;;;;;5018853;28;20033;-60
2022/08/18 13:10:34;;;;;;;6.50;2.03;;;;;;;;;;5004880;28;20418;-59
2022/08/18 13:20:29;;;;;;;9.18;2.08;;;;;;;;;;4991216;28;20427;-58
2022/08/18 13:22:55;;;;;;;9.52;2.05;;;;;;;;;;4997532;28;20499;-58
2022/08/18 13:25:23;;;;;;;7.28;2.10;;;;;;;;;;4982174;28;20050;-59
2022/08/18 13:27:51;;;;;;;5.07;1.80;;;;;;;;;;4983614;28;20039;-58
2022/08/18 13:30:17;;;;;;;9.15;1.73;;;;;;;;;;4982096;28;20180;-59
2022/08/18 13:32:44;;;;;;;8.95;1.80;;;;;;;;;;4982121;28;20068;-58
2022/08/18 13:35:11;;;;;;;11.15;1.80;;;;;;;;;;4981936;28;20530;-61
2022/08/18 13:37:38;;;;;;;4.20;1.60;;;;;;;;;;4982036;28;20077;-60
2022/08/18 13:40:05;;;;;;;8.13;2.08;;;;;;;;;;4983200;28;20057;-58
2022/08/18 13:42:31;;;;;;;9.05;2.50;;;;;;;;;;4982975;28;20042;-60
2022/08/18 13:44:59;;;;;;;5.32;1.85;;;;;;;;;;4982748;28;20093;-59
2022/08/18 13:47:28;;;;;;;13.25;2.05;;;;;;;;;;4996710;28;20034;-62
2022/08/18 13:49:55;;;;;;;5.70;1.70;;;;;;;;;;4981890;28;20542;-60
2022/08/18 13:52:21;;;;;;;8.68;1.90;;;;;;;;;;4994622;28;20064;-60
2022/08/18 13:54:48;;;;;;;7.88;1.88;;;;;;;;;;4983083;28;20040;-59
2022/08/18 13:57:14;;;;;;;5.43;1.75;;;;;;;;;;4981911;28;20030;-59
2022/08/18 13:59:41;;;;;;;7.47;1.70;;;;;;;;;;4996076;28;20043;-60
2022/08/18 14:02:10;;;;;;;7.97;1.73;;;;;;;;;;4996344;28;20113;-61
2022/08/18 14:04:37;;;;;;;8.90;1.65;;;;;;;;;;4972215;28;20046;-59
2022/08/18 14:07:04;;;;;;;7.97;1.65;;;;;;;;;;4982241;28;20034;-61
2022/08/18 14:09:31;;;;;;;7.65;1.42;;;;;;;;;;4979651;28;20038;-62
2022/08/18 14:11:58;;;;;;;7.18;1.98;;;;;;;;;;4978447;28;20034;-60
2022/08/18 14:14:25;;;;;;;6.18;1.88;;;;;;;;;;4978066;28;20042;-59
2022/08/18 14:16:52;;;;;;;8.40;1.60;;;;;;;;;;4979764;28;20043;-59
2022/08/18 14:27:35;;;;;;;5.82;1.40;;;;;;;;;;4979392;28;20635;-62
2022/08/18 14:30:06;;;;;;;5.47;1.40;;;;;;;;;;4990605;28;20038;-61
2022/08/18 14:32:33;;;;;;;10.68;1.70;;;;;;;;;;4965593;28;20672;-60
2022/08/18 14:35:00;;;;;;;6.22;1.48;;;;;;;;;;4965813;28;20039;-60
2022/08/18 14:37:28;;;;;;;5.90;1.45;;;;;;;;;;4965305;28;20038;-61
2022/08/18 14:39:54;;;;;;;6.18;1.30;;;;;;;;;;4965807;28;20054;-61
2022/08/18 14:42:21;;;;;;;4.15;1.30;;;;;;;;;;4965140;28;20047;-60
2022/08/18 14:44:49;;;;;;;5.03;1.30;;;;;;;;;;4966336;28;20047;-61
2022/08/18 14:47:16;;;;;;;5.32;1.33;;;;;;;;;;4966508;28;20039;-60
2022/08/18 14:49:42;;;;;;;8.70;1.52;;;;;;;;;;4964821;28;20471;-60
2022/08/18 14:52:10;;;;;;;5.50;1.42;;;;;;;;;;4966396;28;20057;-59
2022/08/18 14:54:37;;;;;;;3.63;1.20;;;;;;;;;;4979829;28;20051;-60
2022/08/18 14:57:10;;;;;;;5.25;1.52;;;;;;;;;;4965421;28;20049;-60
2022/08/18 14:59:37;;;;;;;5.13;1.17;;;;;;;;;;4964043;28;20109;-60
2022/08/18 15:02:05;;;;;;;6.43;1.40;;;;;;;;;;4965443;28;20138;-59
2022/08/18 15:04:32;;;;;;;4.80;1.23;;;;;;;;;;4964044;28;20050;-60
2022/08/18 15:06:58;;;;;;;5.18;1.38;;;;;;;;;;4965371;28;20039;-60
2022/08/18 15:09:26;;;;;;;10.90;1.33;;;;;;;;;;4963738;28;20050;-60
2022/08/18 15:11:54;;;;;;;5.70;1.25;;;;;;;;;;4965416;28;20136;-61
2022/08/18 15:14:22;;;;;;;5.95;1.48;;;;;;;;;;4964382;28;20077;-60
2022/08/18 15:16:49;;;;;;;7.10;1.55;;;;;;;;;;4964791;28;20062;-60
2022/08/18 15:19:15;;;;;;;6.40;1.33;;;;;;;;;;4965158;28;20078;-62
2022/08/18 15:27:12;;;;;;;5.70;1.30;;;;;;;;;;4964640;28;20391;-59
2022/08/18 15:29:39;;;;;;;3.78;1.10;;;;;;;;;;4963790;28;20542;-61
2022/08/18 15:32:07;;;;;;;4.82;0.90;;;;;;;;;;4965180;28;20109;-60
2022/08/18 15:34:34;;;;;;;4.85;1.00;;;;;;;;;;4963502;28;20050;-60
2022/08/18 15:37:00;;;;;;;6.00;1.08;;;;;;;;;;4965146;28;20496;-60
2022/08/18 15:39:27;;;;;;;4.75;1.00;;;;;;;;;;4963101;28;20054;-61
2022/08/18 15:41:54;;;;;;;3.50;1.00;;;;;;;;;;4963841;28;20101;-61
2022/08/18 15:44:22;;;;;;;4.93;1.25;;;;;;;;;;4963767;28;20042;-60
2022/08/18 15:46:48;;;;;;;3.00;0.90;;;;;;;;;;4964841;28;20043;-60
2022/08/18 15:49:16;;;;;;;7.50;1.20;;;;;;;;;;4964536;28;20053;-60
2022/08/18 15:51:42;;;;;;;4.28;1.10;;;;;;;;;;4961906;28;20082;-61
2022/08/18 15:54:09;;;;;;;6.55;1.25;;;;;;;;;;4963651;28;20538;-61
2022/08/18 15:56:36;;;;;;;5.63;1.10;;;;;;;;;;4978449;28;20042;-59
2022/08/18 15:59:05;;;;;;;6.20;1.25;;;;;;;;;;4964036;28;20510;-60
2022/08/18 16:01:35;;;;;;;7.13;1.25;;;;;;;;;;4964006;28;20044;-60
2022/08/18 16:04:01;;;;;;;5.57;1.00;;;;;;;;;;4963957;28;20034;-60
2022/08/18 16:06:28;;;;;;;4.93;0.98;;;;;;;;;;4962133;28;20102;-60
2022/08/18 16:08:55;;;;;;;7.35;0.90;;;;;;;;;;4964055;28;20054;-60
2022/08/18 16:11:22;;;;;;;5.13;1.17;;;;;;;;;;4962896;28;20540;-60
2022/08/18 16:13:49;;;;;;;7.60;1.30;;;;;;;;;;4963199;28;20050;-60
2022/08/18 16:16:17;;;;;;;6.55;1.27;;;;;;;;;;4963990;28;20046;-60
2022/08/18 16:18:44;;;;;;;5.63;0.90;;;;;;;;;;4963140;28;20141;-60
2022/08/18 16:21:12;;;;;;;4.22;1.00;;;;;;;;;;4964685;28;20035;-60
2022/08/18 16:23:39;;;;;;;12.88;1.00;;;;;;;;;;4962393;28;20113;-60
2022/08/18 16:26:11;;;;;;;5.20;0.85;;;;;;;;;;4963905;28;20627;-60
2022/08/18 16:28:38;;;;;;;4.18;1.00;;;;;;;;;;4964301;28;20061;-60
2022/08/18 16:31:05;;;;;;;4.75;1.27;;;;;;;;;;4964353;28;20074;-60
2022/08/18 16:33:31;;;;;;;6.35;1.20;;;;;;;;;;4962140;28;20035;-59
2022/08/18 16:36:08;;;;;;;3.33;0.90;;;;;;;;;;4963887;28;20041;-60
2022/08/18 16:38:37;;;;;;;3.92;0.88;;;;;;;;;;4963354;28;20061;-60
2022/08/18 16:41:07;;;;;;;6.43;1.30;;;;;;;;;;4963328;28;20104;-60
2022/08/18 16:43:35;;;;;;;5.00;0.90;;;;;;;;;;4963464;28;20043;-60
2022/08/18 16:46:01;;;;;;;7.75;1.13;;;;;;;;;;4963754;28;20101;-60
2022/08/18 16:48:29;;;;;;;6.03;1.00;;;;;;;;;;4962398;28;20046;-60
2022/08/18 16:50:55;;;;;;;5.70;1.00;;;;;;;;;;4963578;28;20049;-60
2022/08/18 16:53:22;;;;;;;4.40;0.98;;;;;;;;;;4962515;28;20046;-60
2022/08/18 16:55:49;;;;;;;4.82;1.35;;;;;;;;;;4977798;28;20117;-60
2022/08/18 17:04:06;;;;;;;3.75;0.93;;;;;;;;;;4962143;28;20141;-60
2022/08/18 17:06:33;;;;;;;7.80;1.13;;;;;;;;;;4963366;28;20061;-59
2022/08/18 17:09:00;;;;;;;8.90;1.20;;;;;;;;;;4962127;28;20134;-59
2022/08/18 17:11:28;;;;;;;6.75;1.27;;;;;;;;;;4962151;28;20041;-59
2022/08/18 17:13:56;;;;;;;6.47;1.20;;;;;;;;;;4976612;28;20043;-60
2022/08/18 17:16:26;;;;;;;4.22;1.02;;;;;;;;;;4962216;28;20038;-59
2022/08/18 17:18:53;;;;;;;5.57;1.23;;;;;;;;;;4964275;28;20176;-59
2022/08/18 17:21:23;;;;;;;5.90;1.35;;;;;;;;;;4963396;28;20042;-59
2022/08/18 17:23:50;;;;;;;8.30;1.20;;;;;;;;;;4962093;28;20052;-59
2022/08/18 17:26:28;;;;;;;4.30;0.82;;;;;;;;;;4961385;28;20046;-59
2022/08/18 17:29:16;;;;;;;2.83;1.00;;;;;;;;;;4962922;28;20082;-60
2022/08/18 17:31:52;;;;;;;6.85;1.08;;;;;;;;;;4967960;28;20046;-60
2022/08/18 17:34:19;;;;;;;3.40;1.00;;;;;;;;;;4960760;28;20046;-60
2022/08/18 17:36:56;;;;;;;5.10;1.05;;;;;;;;;;4962623;28;20788;-60
2022/08/18 17:39:28;;;;;;;5.78;1.10;;;;;;;;;;4962049;28;20518;-60
2022/08/18 17:44:41;;;;;;;4.03;1.10;;;;;;;;;;4962117;28;19969;-60
2022/08/18 17:47:10;;;;;;;3.92;1.02;;;;;;;;;;4962579;28;20579;-60
2022/08/18 17:52:35;;;;;;;5.22;1.10;;;;;;;;;;4964199;28;20050;-59
2022/08/18 17:55:08;;;;;;;7.05;1.25;;;;;;;;;;4965436;28;20105;-59
2022/08/18 17:57:37;;;;;;;6.47;1.15;;;;;;;;;;4964942;28;20039;-59
2022/08/18 18:00:11;;;;;;;3.92;1.20;;;;;;;;;;4963617;28;20046;-59
2022/08/18 18:02:39;;;;;;;2.90;0.93;;;;;;;;;;4962262;28;20046;-59
2022/08/18 18:05:06;;;;;;;3.92;1.10;;;;;;;;;;4964962;28;20135;-60
2022/08/18 18:07:54;;;;;;;5.32;1.08;;;;;;;;;;4968031;28;20093;-58
2022/08/18 18:10:44;;;;;;;6.80;1.00;;;;;;;;;;4968305;28;20051;-60
2022/08/18 18:13:10;;;;;;;5.10;1.13;;;;;;;;;;4968197;28;20045;-59
2022/08/18 18:15:39;;;;;;;5.15;1.10;;;;;;;;;;4968889;28;20039;-60
2022/08/18 18:18:26;;;;;;;4.05;1.20;;;;;;;;;;4969094;28;20077;-59
2022/08/18 18:21:03;;;;;;;8.73;1.30;;;;;;;;;;4956473;28;20189;-59
2022/08/18 18:23:32;;;;;;;5.25;1.15;;;;;;;;;;4968432;28;20192;-61
2022/08/18 18:25:59;;;;;;;17.58;1.77;;;;;;;;;;4967930;28;20043;-58
2022/08/18 18:28:30;;;;;;;6.15;1.20;;;;;;;;;;4968825;28;20074;-59
2022/08/18 18:30:58;;;;;;;9.40;1.50;;;;;;;;;;4966108;28;20432;-60
2022/08/18 18:33:29;;;;;;;8.35;1.85;;;;;;;;;;4963696;28;20780;-59
2022/08/18 18:35:56;;;;;;;10.50;1.30;;;;;;;;;;4965466;28;20039;-60
2022/08/18 18:38:31;;;;;;;6.65;1.50;;;;;;;;;;4964944;28;20046;-60
2022/08/18 18:41:02;;;;;;;7.38;1.48;;;;;;;;;;4966750;28;20054;-60
2022/08/18 18:43:46;;;;;;;9.82;1.83;;;;;;;;;;4964558;28;20121;-60
2022/08/18 18:46:15;;;;;;;5.95;1.27;;;;;;;;;;4966258;28;20130;-60
2022/08/18 18:48:44;;;;;;;8.15;1.70;;;;;;;;;;4964660;28;20100;-60
2022/08/18 18:51:22;;;;;;;5.20;1.17;;;;;;;;;;4965494;28;20048;-60
2022/08/18 18:53:59;;;;;;;5.88;1.23;;;;;;;;;;4965328;28;20042;-60
2022/08/18 18:56:30;;;;;;;11.48;1.40;;;;;;;;;;4964071;28;20039;-61
2022/08/18 18:59:21;;;;;;;8.53;1.17;;;;;;;;;;4966212;28;20045;-60
2022/08/18 19:02:12;;;;;;;4.55;1.40;;;;;;;;;;4965214;28;20291;-60
2022/08/18 19:05:02;;;;;;;8.52;1.48;;;;;;;;;;4965042;28;20065;-59
2022/08/18 19:07:44;;;;;;;11.75;1.48;;;;;;;;;;4974738;28;20073;-60
2022/08/18 19:10:18;;;;;;;7.80;1.00;;;;;;;;;;4966885;28;20054;-60
2022/08/18 19:12:54;;;;;;;4.25;1.20;;;;;;;;;;4964760;28;20085;-61
2022/08/18 19:15:21;;;;;;;4.47;1.23;;;;;;;;;;4981212;28;20051;-61
2022/08/18 19:18:06;;;;;;;9.35;1.20;;;;;;;;;;4966767;28;20043;-60
2022/08/18 19:20:39;;;;;;;4.90;1.30;;;;;;;;;;4967668;28;20065;-62
2022/08/18 19:23:24;;;;;;;6.28;1.08;;;;;;;;;;4966441;28;20050;-59
2022/08/18 19:25:51;;;;;;;6.18;1.13;;;;;;;;;;4965875;28;20998;-59
2022/08/18 19:28:23;;;;;;;4.03;1.10;;;;;;;;;;4966093;28;20727;-59
2022/08/18 19:30:52;;;;;;;10.23;1.40;;;;;;;;;;4967624;28;20038;-59
2022/08/18 19:33:22;;;;;;;7.13;1.30;;;;;;;;;;4964063;28;20053;-59
2022/08/18 19:35:49;;;;;;;6.97;1.20;;;;;;;;;;4967476;28;20089;-59
2022/08/18 19:38:21;;;;;;;6.57;1.70;;;;;;;;;;4969229;28;20034;-59
2022/08/18 19:40:51;;;;;;;5.40;1.17;;;;;;;;;;4955052;28;20604;-59
2022/08/18 19:43:32;;;;;;;4.05;1.10;;;;;;;;;;4965082;28;20039;-59
2022/08/18 19:46:03;;;;;;;4.70;1.40;;;;;;;;;;4980041;28;20042;-59
2022/08/18 19:48:33;;;;;;;8.27;1.20;;;;;;;;;;4964812;28;20125;-59
2022/08/18 19:51:11;;;;;;;6.80;1.35;;;;;;;;;;4966962;28;20089;-59
2022/08/18 19:53:43;;;;;;;5.47;1.20;;;;;;;;;;4964903;28;20043;-59
2022/08/18 19:56:21;;;;;;;3.92;1.35;;;;;;;;;;4966185;28;20042;-59
2022/08/18 19:59:03;;;;;;;4.57;1.13;;;;;;;;;;4972966;28;20500;-59
2022/08/18 20:01:42;;;;;;;5.20;1.15;;;;;;;;;;4964496;28;20190;-59
2022/08/18 20:04:27;;;;;;;3.95;1.23;;;;;;;;;;4980076;28;20050;-59
2022/08/18 20:07:00;;;;;;;5.20;1.00;;;;;;;;;;4965023;28;20065;-59
2022/08/18 20:09:26;;;;;;;4.45;1.25;;;;;;;;;;4964518;28;20086;-59
2022/08/18 20:12:02;;;;;;;7.72;1.40;;;;;;;;;;4966033;28;20050;-59
2022/08/18 20:14:32;;;;;;;6.80;1.30;;;;;;;;;;4965261;28;20129;-59
2022/08/18 20:17:07;;;;;;;4.25;1.20;;;;;;;;;;4965301;28;20038;-59
2022/08/18 20:19:34;;;;;;;5.72;1.30;;;;;;;;;;4971830;28;20062;-59
2022/08/18 20:22:02;;;;;;;5.22;1.70;;;;;;;;;;4965157;28;20054;-58
2022/08/18 20:24:47;;;;;;;10.07;1.50;;;;;;;;;;4963348;28;20495;-59
2022/08/18 20:27:16;;;;;;;3.75;1.40;;;;;;;;;;4965255;28;20038;-60
2022/08/18 20:29:46;;;;;;;7.20;1.70;;;;;;;;;;4962808;28;20125;-60
2022/08/18 20:32:20;;;;;;;4.45;1.30;;;;;;;;;;4962427;28;20050;-60
2022/08/18 20:34:50;;;;;;;6.30;1.65;;;;;;;;;;4964755;28;20072;-59
2022/08/18 20:37:24;;;;;;;5.28;1.60;;;;;;;;;;4963982;28;20053;-59
2022/08/18 20:39:53;;;;;;;5.43;1.75;;;;;;;;;;4959155;28;20483;-60
2022/08/18 20:42:23;;;;;;;3.95;1.38;;;;;;;;;;4963590;28;20042;-59
2022/08/18 20:44:49;;;;;;;5.05;1.83;;;;;;;;;;4963119;28;21738;-59
2022/08/18 20:47:28;;;;;;;4.38;1.50;;;;;;;;;;4964433;28;20169;-59
2022/08/18 20:50:13;;;;;;;5.70;1.60;;;;;;;;;;4963722;28;20630;-59
2022/08/18 20:52:42;;;;;;;3.78;1.42;;;;;;;;;;4962557;28;20623;-59
2022/08/18 20:55:27;;;;;;;5.28;1.95;;;;;;;;;;4963916;28;20389;-60
2022/08/18 20:57:59;;;;;;;7.15;1.83;;;;;;;;;;4963349;28;20042;-59
2022/08/18 21:00:26;;;;;;;5.95;1.80;;;;;;;;;;4962960;28;20047;-60
2022/08/18 21:02:54;;;;;;;5.90;1.60;;;;;;;;;;4963555;28;20038;-59
2022/08/18 21:05:23;;;;;;;4.53;1.55;;;;;;;;;;4962615;28;20043;-60
2022/08/18 21:08:16;;;;;;;8.05;1.95;;;;;;;;;;4964341;28;20049;-60
2022/08/18 21:10:49;;;;;;;9.32;1.95;;;;;;;;;;4964139;28;20504;-60
2022/08/18 21:13:30;;;;;;;4.63;1.70;;;;;;;;;;4961989;28;20054;-59
2022/08/18 21:15:56;;;;;;;5.45;1.98;;;;;;;;;;4963052;28;20038;-60
2022/08/18 21:18:24;;;;;;;8.02;1.60;;;;;;;;;;4962437;28;20051;-59
2022/08/18 21:20:52;;;;;;;5.72;1.63;;;;;;;;;;4962990;28;20132;-60
2022/08/18 21:23:30;;;;;;;5.32;1.88;;;;;;;;;;4962259;28;20458;-60
2022/08/18 21:25:58;;;;;;;5.50;1.67;;;;;;;;;;4961995;28;20039;-60
2022/08/18 21:28:26;;;;;;;7.88;1.90;;;;;;;;;;4961401;28;20058;-59
2022/08/18 21:31:04;;;;;;;6.22;1.70;;;;;;;;;;4964090;28;20051;-58
2022/08/18 21:33:31;;;;;;;4.65;1.88;;;;;;;;;;4962309;28;20336;-58
2022/08/18 21:35:59;;;;;;;9.32;2.08;;;;;;;;;;4962047;28;20039;-59
2022/08/18 21:38:27;;;;;;;7.15;1.98;;;;;;;;;;4962978;28;20588;-59
2022/08/18 21:41:00;;;;;;;4.72;1.88;;;;;;;;;;4963916;28;20035;-60
2022/08/18 21:43:47;;;;;;;8.15;1.77;;;;;;;;;;4965793;28;20045;-58
2022/08/18 21:46:20;;;;;;;7.45;1.58;;;;;;;;;;4967294;28;20043;-59
2022/08/18 21:48:49;;;;;;;5.13;2.08;;;;;;;;;;4965831;28;20150;-59
2022/08/18 21:51:20;;;;;;;5.97;1.80;;;;;;;;;;4967152;28;20069;-59
2022/08/18 21:53:47;;;;;;;5.73;1.73;;;;;;;;;;4973241;28;20169;-59
2022/08/18 21:56:26;;;;;;;7.28;1.52;;;;;;;;;;4967106;28;20042;-60
2022/08/18 21:59:08;;;;;;;7.53;1.85;;;;;;;;;;4961383;28;20508;-59
2022/08/18 22:01:36;;;;;;;9.48;1.90;;;;;;;;;;4965423;28;20096;-59
2022/08/18 22:04:26;;;;;;;7.00;1.73;;;;;;;;;;4966978;28;21690;-59
2022/08/18 22:07:06;;;;;;;8.93;1.58;;;;;;;;;;4963550;28;20047;-60
2022/08/18 22:15:12;;;;;;;7.70;1.90;;;;;;;;;;4967999;28;20046;-59
2022/08/18 22:17:42;;;;;;;5.25;1.60;;;;;;;;;;4965903;28;20073;-59
2022/08/18 22:20:27;;;;;;;8.27;1.77;;;;;;;;;;4966221;28;20455;-60
2022/08/18 22:25:42;;;;;;;5.82;1.75;;;;;;;;;;4965397;28;20531;-60
2022/08/18 22:28:09;;;;;;;9.00;1.75;;;;;;;;;;4968643;28;20113;-59
2022/08/18 22:30:35;;;;;;;8.48;1.92;;;;;;;;;;4980717;28;20065;-60
2022/08/18 22:33:02;;;;;;;4.40;1.45;;;;;;;;;;4964643;28;20034;-60
2022/08/18 22:35:29;;;;;;;10.23;1.52;;;;;;;;;;4964587;28;20113;-59
2022/08/18 22:37:55;;;;;;;6.72;1.77;;;;;;;;;;4966793;28;20167;-60
2022/08/18 22:40:22;;;;;;;7.78;1.75;;;;;;;;;;4966916;28;20117;-59
2022/08/18 22:42:48;;;;;;;12.05;1.73;;;;;;;;;;4965064;28;20059;-59
2022/08/18 22:45:15;;;;;;;7.70;1.92;;;;;;;;;;4966390;28;20110;-61
2022/08/18 22:47:41;;;;;;;7.50;2.08;;;;;;;;;;4965038;28;20478;-60
2022/08/18 22:50:08;;;;;;;6.68;1.80;;;;;;;;;;4964755;28;20531;-60
2022/08/18 22:52:36;;;;;;;4.65;1.70;;;;;;;;;;4965720;28;20098;-60
2022/08/18 22:55:06;;;;;;;6.60;1.77;;;;;;;;;;4965623;28;20060;-60
2022/08/18 22:57:35;;;;;;;7.90;1.73;;;;;;;;;;4965671;28;20039;-60
2022/08/18 23:00:06;;;;;;;10.18;1.83;;;;;;;;;;4964213;28;20046;-60
2022/08/18 23:02:33;;;;;;;5.72;1.90;;;;;;;;;;4964492;28;20046;-60
2022/08/18 23:05:00;;;;;;;4.72;1.70;;;;;;;;;;4965633;28;20050;-60
2022/08/18 23:07:27;;;;;;;11.18;2.60;;;;;;;;;;4965849;28;20042;-60
2022/08/18 23:09:54;;;;;;;7.78;2.20;;;;;;;;;;4966732;28;20082;-60
2022/08/18 23:12:21;;;;;;;7.82;1.95;;;;;;;;;;4963556;28;20475;-60
2022/08/18 23:14:48;;;;;;;5.65;1.70;;;;;;;;;;4966061;28;20401;-60
2022/08/18 23:17:15;;;;;;;5.28;2.05;;;;;;;;;;4965577;28;20034;-60
2022/08/18 23:19:42;;;;;;;6.25;1.60;;;;;;;;;;4965545;28;20121;-59
2022/08/18 23:22:09;;;;;;;7.53;1.85;;;;;;;;;;4962140;28;20042;-59
2022/08/18 23:24:36;;;;;;;7.35;1.70;;;;;;;;;;4965107;28;20038;-59
2022/08/18 23:27:04;;;;;;;6.28;1.67;;;;;;;;;;4980107;28;20038;-59
2022/08/18 23:29:30;;;;;;;8.63;1.88;;;;;;;;;;4965154;28;20277;-59
2022/08/18 23:31:57;;;;;;;9.90;2.10;;;;;;;;;;4964950;28;20037;-59
2022/08/18 23:34:26;;;;;;;6.05;1.70;;;;;;;;;;4964923;28;20038;-60
2022/08/18 23:36:54;;;;;;;13.18;2.20;;;;;;;;;;4965214;28;20042;-60
2022/08/18 23:39:21;;;;;;;7.78;1.83;;;;;;;;;;4964359;28;20043;-59
2022/08/18 23:41:50;;;;;;;8.38;1.65;;;;;;;;;;4962542;28;20050;-59
2022/08/18 23:44:17;;;;;;;8.35;1.75;;;;;;;;;;4964546;28;20130;-61
2022/08/18 23:46:44;;;;;;;9.88;2.15;;;;;;;;;;4973226;28;20047;-59
2022/08/18 23:49:13;;;;;;;7.63;1.73;;;;;;;;;;4964009;28;20057;-61
2022/08/18 23:51:44;;;;;;;4.97;1.83;;;;;;;;;;4962841;28;20046;-59
2022/08/18 23:54:13;;;;;;;6.88;1.60;;;;;;;;;;4964475;28;20047;-60
2022/08/18 23:56:39;;;;;;;5.13;1.55;;;;;;;;;;4961924;28;20073;-59
2022/08/18 23:59:07;;;;;;;9.95;2.05;;;;;;;;;;4963465;28;20064;-59
